sensor_id;sensor_type;location;lat;lon;timestamp;P1;durP1;ratioP1;P2;durP2;ratioP2
75823;SDS011;64457;51.976;9.834;2024-03-07T00:00:55;43.27;;;21.87;;
75823;SDS011;64457;51.976;9.834;2024-03-07T00:03:22;41.37;;;21.93;;
75823;SDS011;64457;51.976;9.834;2024-03-07T00:05:50;40.10;;;21.77;;
75823;SDS011;64457;51.976;9.834;2024-03-07T00:08:21;41.30;;;22.50;;
75823;SDS011;64457;51.976;9.834;2024-03-07T00:10:52;41.37;;;22.13;;
75823;SDS011;64457;51.976;9.834;2024-03-07T00:13:28;35.17;;;20.67;;
75823;SDS011;64457;51.976;9.834;2024-03-07T00:15:56;39.77;;;21.63;;
75823;SDS011;64457;51.976;9.834;2024-03-07T00:18:23;47.63;;;22.23;;
75823;SDS011;64457;51.976;9.834;2024-03-07T00:20:51;40.53;;;22.77;;
75823;SDS011;64457;51.976;9.834;2024-03-07T00:23:20;42.70;;;21.90;;
75823;SDS011;64457;51.976;9.834;2024-03-07T00:25:49;39.80;;;20.63;;
75823;SDS011;64457;51.976;9.834;2024-03-07T00:28:17;42.10;;;21.20;;
75823;SDS011;64457;51.976;9.834;2024-03-07T00:30:46;42.40;;;22.73;;
75823;SDS011;64457;51.976;9.834;2024-03-07T00:33:13;47.33;;;22.53;;
75823;SDS011;64457;51.976;9.834;2024-03-07T00:35:43;40.30;;;22.07;;
75823;SDS011;64457;51.976;9.834;2024-03-07T00:38:13;48.13;;;23.77;;
75823;SDS011;64457;51.976;9.834;2024-03-07T00:40:49;40.93;;;21.37;;
75823;SDS011;64457;51.976;9.834;2024-03-07T00:43:17;41.30;;;21.90;;
75823;SDS011;64457;51.976;9.834;2024-03-07T00:45:49;41.17;;;22.00;;
75823;SDS011;64457;51.976;9.834;2024-03-07T00:48:19;43.03;;;22.13;;
75823;SDS011;64457;51.976;9.834;2024-03-07T00:50:46;46.43;;;23.40;;
75823;SDS011;64457;51.976;9.834;2024-03-07T00:53:19;37.93;;;21.40;;
75823;SDS011;64457;51.976;9.834;2024-03-07T00:55:47;46.60;;;22.47;;
75823;SDS011;64457;51.976;9.834;2024-03-07T00:58:19;39.73;;;22.00;;
75823;SDS011;64457;51.976;9.834;2024-03-07T01:00:46;43.90;;;21.10;;
75823;SDS011;64457;51.976;9.834;2024-03-07T01:03:15;44.10;;;22.27;;
75823;SDS011;64457;51.976;9.834;2024-03-07T01:05:43;42.90;;;22.33;;
75823;SDS011;64457;51.976;9.834;2024-03-07T01:08:11;40.97;;;22.17;;
75823;SDS011;64457;51.976;9.834;2024-03-07T01:10:38;43.90;;;22.40;;
75823;SDS011;64457;51.976;9.834;2024-03-07T01:13:06;42.77;;;22.50;;
75823;SDS011;64457;51.976;9.834;2024-03-07T01:15:45;41.90;;;22.47;;
75823;SDS011;64457;51.976;9.834;2024-03-07T01:18:15;39.70;;;22.40;;
75823;SDS011;64457;51.976;9.834;2024-03-07T01:20:43;40.70;;;21.90;;
75823;SDS011;64457;51.976;9.834;2024-03-07T01:23:11;42.40;;;21.40;;
75823;SDS011;64457;51.976;9.834;2024-03-07T01:25:39;48.83;;;23.47;;
75823;SDS011;64457;51.976;9.834;2024-03-07T01:28:06;45.90;;;23.73;;
75823;SDS011;64457;51.976;9.834;2024-03-07T01:30:41;45.63;;;22.57;;
75823;SDS011;64457;51.976;9.834;2024-03-07T01:33:10;45.70;;;22.60;;
75823;SDS011;64457;51.976;9.834;2024-03-07T01:35:40;45.37;;;22.30;;
75823;SDS011;64457;51.976;9.834;2024-03-07T01:38:18;45.03;;;22.20;;
75823;SDS011;64457;51.976;9.834;2024-03-07T01:40:46;42.37;;;20.97;;
75823;SDS011;64457;51.976;9.834;2024-03-07T01:43:14;43.73;;;21.33;;
75823;SDS011;64457;51.976;9.834;2024-03-07T01:45:41;50.03;;;23.70;;
75823;SDS011;64457;51.976;9.834;2024-03-07T01:48:11;45.60;;;22.27;;
75823;SDS011;64457;51.976;9.834;2024-03-07T01:50:53;45.80;;;23.50;;
75823;SDS011;64457;51.976;9.834;2024-03-07T01:53:22;44.83;;;22.70;;
75823;SDS011;64457;51.976;9.834;2024-03-07T01:55:54;52.43;;;24.50;;
75823;SDS011;64457;51.976;9.834;2024-03-07T01:58:23;54.87;;;24.00;;
75823;SDS011;64457;51.976;9.834;2024-03-07T02:00:56;45.37;;;23.77;;
75823;SDS011;64457;51.976;9.834;2024-03-07T02:03:23;46.93;;;23.33;;
75823;SDS011;64457;51.976;9.834;2024-03-07T02:05:53;49.33;;;23.97;;
75823;SDS011;64457;51.976;9.834;2024-03-07T02:08:23;52.27;;;23.87;;
75823;SDS011;64457;51.976;9.834;2024-03-07T02:10:50;44.90;;;23.37;;
75823;SDS011;64457;51.976;9.834;2024-03-07T02:13:18;52.87;;;23.30;;
75823;SDS011;64457;51.976;9.834;2024-03-07T02:15:45;48.47;;;24.23;;
75823;SDS011;64457;51.976;9.834;2024-03-07T02:18:13;46.33;;;24.83;;
75823;SDS011;64457;51.976;9.834;2024-03-07T02:20:43;48.70;;;23.90;;
75823;SDS011;64457;51.976;9.834;2024-03-07T02:23:13;49.00;;;24.37;;
75823;SDS011;64457;51.976;9.834;2024-03-07T02:25:48;49.70;;;24.30;;
75823;SDS011;64457;51.976;9.834;2024-03-07T02:28:16;47.83;;;24.97;;
75823;SDS011;64457;51.976;9.834;2024-03-07T02:30:43;48.20;;;23.43;;
75823;SDS011;64457;51.976;9.834;2024-03-07T02:33:11;41.50;;;23.33;;
75823;SDS011;64457;51.976;9.834;2024-03-07T02:35:41;47.70;;;24.00;;
75823;SDS011;64457;51.976;9.834;2024-03-07T02:38:10;51.57;;;25.13;;
75823;SDS011;64457;51.976;9.834;2024-03-07T02:40:37;46.50;;;23.90;;
75823;SDS011;64457;51.976;9.834;2024-03-07T02:43:05;46.23;;;24.40;;
75823;SDS011;64457;51.976;9.834;2024-03-07T02:45:32;51.13;;;25.00;;
75823;SDS011;64457;51.976;9.834;2024-03-07T02:48:00;49.30;;;25.57;;
75823;SDS011;64457;51.976;9.834;2024-03-07T02:50:30;51.93;;;25.10;;
75823;SDS011;64457;51.976;9.834;2024-03-07T02:52:58;50.37;;;25.23;;
75823;SDS011;64457;51.976;9.834;2024-03-07T02:55:29;52.50;;;26.27;;
75823;SDS011;64457;51.976;9.834;2024-03-07T02:57:57;48.10;;;24.37;;
75823;SDS011;64457;51.976;9.834;2024-03-07T03:00:33;47.97;;;25.00;;
75823;SDS011;64457;51.976;9.834;2024-03-07T03:03:04;46.60;;;23.97;;
75823;SDS011;64457;51.976;9.834;2024-03-07T03:05:31;46.20;;;23.57;;
75823;SDS011;64457;51.976;9.834;2024-03-07T03:08:07;48.70;;;24.53;;
75823;SDS011;64457;51.976;9.834;2024-03-07T03:10:37;45.93;;;23.80;;
75823;SDS011;64457;51.976;9.834;2024-03-07T03:13:04;49.27;;;24.50;;
75823;SDS011;64457;51.976;9.834;2024-03-07T03:15:41;48.70;;;25.60;;
75823;SDS011;64457;51.976;9.834;2024-03-07T03:18:10;53.73;;;25.27;;
75823;SDS011;64457;51.976;9.834;2024-03-07T03:20:38;48.70;;;25.23;;
75823;SDS011;64457;51.976;9.834;2024-03-07T03:23:08;46.97;;;25.33;;
75823;SDS011;64457;51.976;9.834;2024-03-07T03:25:38;44.20;;;23.50;;
75823;SDS011;64457;51.976;9.834;2024-03-07T03:28:06;45.93;;;24.77;;
75823;SDS011;64457;51.976;9.834;2024-03-07T03:30:35;52.50;;;23.87;;
75823;SDS011;64457;51.976;9.834;2024-03-07T03:33:04;48.63;;;24.23;;
75823;SDS011;64457;51.976;9.834;2024-03-07T03:35:32;44.97;;;23.97;;
75823;SDS011;64457;51.976;9.834;2024-03-07T03:38:00;46.23;;;24.77;;
75823;SDS011;64457;51.976;9.834;2024-03-07T03:40:28;45.37;;;24.30;;
75823;SDS011;64457;51.976;9.834;2024-03-07T03:42:56;42.07;;;23.70;;
75823;SDS011;64457;51.976;9.834;2024-03-07T03:45:24;43.10;;;23.70;;
75823;SDS011;64457;51.976;9.834;2024-03-07T03:47:51;43.57;;;23.73;;
75823;SDS011;64457;51.976;9.834;2024-03-07T03:50:19;41.10;;;22.33;;
75823;SDS011;64457;51.976;9.834;2024-03-07T03:52:48;46.53;;;22.80;;
75823;SDS011;64457;51.976;9.834;2024-03-07T03:55:26;39.90;;;22.87;;
75823;SDS011;64457;51.976;9.834;2024-03-07T03:57:55;43.03;;;23.23;;
75823;SDS011;64457;51.976;9.834;2024-03-07T04:00:24;46.53;;;22.73;;
75823;SDS011;64457;51.976;9.834;2024-03-07T04:02:52;45.40;;;23.20;;
75823;SDS011;64457;51.976;9.834;2024-03-07T04:05:20;43.20;;;23.30;;
75823;SDS011;64457;51.976;9.834;2024-03-07T04:07:47;48.60;;;22.73;;
75823;SDS011;64457;51.976;9.834;2024-03-07T04:10:15;44.47;;;22.50;;
75823;SDS011;64457;51.976;9.834;2024-03-07T04:12:45;42.93;;;22.83;;
75823;SDS011;64457;51.976;9.834;2024-03-07T04:15:15;42.23;;;21.87;;
75823;SDS011;64457;51.976;9.834;2024-03-07T04:17:45;42.83;;;21.57;;
75823;SDS011;64457;51.976;9.834;2024-03-07T04:20:12;41.80;;;22.50;;
75823;SDS011;64457;51.976;9.834;2024-03-07T04:22:42;44.03;;;22.87;;
75823;SDS011;64457;51.976;9.834;2024-03-07T04:25:09;40.13;;;22.77;;
75823;SDS011;64457;51.976;9.834;2024-03-07T04:27:37;44.23;;;23.30;;
75823;SDS011;64457;51.976;9.834;2024-03-07T04:30:07;49.23;;;22.90;;
75823;SDS011;64457;51.976;9.834;2024-03-07T04:32:37;47.30;;;22.77;;
75823;SDS011;64457;51.976;9.834;2024-03-07T04:35:07;45.90;;;22.67;;
75823;SDS011;64457;51.976;9.834;2024-03-07T04:37:36;42.73;;;22.03;;
75823;SDS011;64457;51.976;9.834;2024-03-07T04:40:07;43.50;;;23.13;;
75823;SDS011;64457;51.976;9.834;2024-03-07T04:42:41;40.00;;;21.33;;
75823;SDS011;64457;51.976;9.834;2024-03-07T04:45:11;45.43;;;22.70;;
75823;SDS011;64457;51.976;9.834;2024-03-07T04:47:39;46.90;;;23.93;;
75823;SDS011;64457;51.976;9.834;2024-03-07T04:50:08;44.33;;;23.50;;
75823;SDS011;64457;51.976;9.834;2024-03-07T04:52:42;46.67;;;24.50;;
75823;SDS011;64457;51.976;9.834;2024-03-07T04:55:10;42.83;;;21.77;;
75823;SDS011;64457;51.976;9.834;2024-03-07T04:57:38;53.63;;;24.60;;
75823;SDS011;64457;51.976;9.834;2024-03-07T05:00:07;47.30;;;24.10;;
75823;SDS011;64457;51.976;9.834;2024-03-07T05:02:41;45.90;;;24.63;;
75823;SDS011;64457;51.976;9.834;2024-03-07T05:05:12;47.10;;;23.60;;
75823;SDS011;64457;51.976;9.834;2024-03-07T05:07:47;50.63;;;23.70;;
75823;SDS011;64457;51.976;9.834;2024-03-07T05:10:16;46.23;;;23.83;;
75823;SDS011;64457;51.976;9.834;2024-03-07T05:12:43;48.37;;;23.80;;
75823;SDS011;64457;51.976;9.834;2024-03-07T05:15:10;42.37;;;22.33;;
75823;SDS011;64457;51.976;9.834;2024-03-07T05:17:38;43.47;;;22.67;;
75823;SDS011;64457;51.976;9.834;2024-03-07T05:20:08;47.40;;;25.47;;
75823;SDS011;64457;51.976;9.834;2024-03-07T05:22:37;45.17;;;24.20;;
75823;SDS011;64457;51.976;9.834;2024-03-07T05:25:09;46.80;;;23.03;;
75823;SDS011;64457;51.976;9.834;2024-03-07T05:27:37;48.00;;;23.90;;
75823;SDS011;64457;51.976;9.834;2024-03-07T05:30:05;43.47;;;21.67;;
75823;SDS011;64457;51.976;9.834;2024-03-07T05:32:37;44.30;;;22.17;;
75823;SDS011;64457;51.976;9.834;2024-03-07T05:35:07;45.83;;;23.13;;
75823;SDS011;64457;51.976;9.834;2024-03-07T05:37:36;37.33;;;20.73;;
75823;SDS011;64457;51.976;9.834;2024-03-07T05:40:07;46.00;;;22.57;;
75823;SDS011;64457;51.976;9.834;2024-03-07T05:42:35;43.47;;;21.80;;
75823;SDS011;64457;51.976;9.834;2024-03-07T05:45:03;39.23;;;21.20;;
75823;SDS011;64457;51.976;9.834;2024-03-07T05:47:33;45.90;;;22.70;;
75823;SDS011;64457;51.976;9.834;2024-03-07T05:50:00;48.63;;;23.30;;
75823;SDS011;64457;51.976;9.834;2024-03-07T05:52:30;41.50;;;22.20;;
75823;SDS011;64457;51.976;9.834;2024-03-07T05:54:57;41.10;;;21.67;;
75823;SDS011;64457;51.976;9.834;2024-03-07T05:57:25;40.17;;;20.70;;
75823;SDS011;64457;51.976;9.834;2024-03-07T05:59:52;40.60;;;21.47;;
75823;SDS011;64457;51.976;9.834;2024-03-07T06:02:19;39.23;;;21.47;;
75823;SDS011;64457;51.976;9.834;2024-03-07T06:04:47;42.40;;;22.93;;
75823;SDS011;64457;51.976;9.834;2024-03-07T06:07:14;41.07;;;21.00;;
75823;SDS011;64457;51.976;9.834;2024-03-07T06:09:43;42.03;;;22.37;;
75823;SDS011;64457;51.976;9.834;2024-03-07T06:12:13;38.37;;;21.27;;
75823;SDS011;64457;51.976;9.834;2024-03-07T06:14:40;40.73;;;21.57;;
75823;SDS011;64457;51.976;9.834;2024-03-07T06:17:08;45.07;;;21.40;;
75823;SDS011;64457;51.976;9.834;2024-03-07T06:19:36;42.70;;;21.57;;
75823;SDS011;64457;51.976;9.834;2024-03-07T06:22:03;39.83;;;20.40;;
75823;SDS011;64457;51.976;9.834;2024-03-07T06:24:34;36.67;;;20.50;;
75823;SDS011;64457;51.976;9.834;2024-03-07T06:27:03;36.20;;;19.00;;
75823;SDS011;64457;51.976;9.834;2024-03-07T06:29:41;38.37;;;19.80;;
75823;SDS011;64457;51.976;9.834;2024-03-07T06:32:08;42.23;;;22.40;;
75823;SDS011;64457;51.976;9.834;2024-03-07T06:34:35;34.20;;;19.70;;
75823;SDS011;64457;51.976;9.834;2024-03-07T06:37:03;42.40;;;21.60;;
75823;SDS011;64457;51.976;9.834;2024-03-07T06:39:31;35.97;;;21.40;;
75823;SDS011;64457;51.976;9.834;2024-03-07T06:41:58;39.00;;;20.90;;
75823;SDS011;64457;51.976;9.834;2024-03-07T06:44:27;39.33;;;21.50;;
75823;SDS011;64457;51.976;9.834;2024-03-07T06:46:54;71.20;;;22.40;;
75823;SDS011;64457;51.976;9.834;2024-03-07T06:49:23;38.60;;;20.03;;
75823;SDS011;64457;51.976;9.834;2024-03-07T06:51:51;38.17;;;21.23;;
75823;SDS011;64457;51.976;9.834;2024-03-07T06:54:19;43.87;;;22.47;;
75823;SDS011;64457;51.976;9.834;2024-03-07T06:56:47;42.60;;;20.87;;
75823;SDS011;64457;51.976;9.834;2024-03-07T06:59:14;37.00;;;21.40;;
75823;SDS011;64457;51.976;9.834;2024-03-07T07:01:45;53.87;;;23.63;;
75823;SDS011;64457;51.976;9.834;2024-03-07T07:04:13;42.47;;;23.60;;
75823;SDS011;64457;51.976;9.834;2024-03-07T07:06:41;40.20;;;21.77;;
75823;SDS011;64457;51.976;9.834;2024-03-07T07:09:08;40.50;;;21.47;;
75823;SDS011;64457;51.976;9.834;2024-03-07T07:11:36;43.50;;;21.63;;
75823;SDS011;64457;51.976;9.834;2024-03-07T07:14:03;45.07;;;21.63;;
75823;SDS011;64457;51.976;9.834;2024-03-07T07:16:30;45.80;;;22.13;;
75823;SDS011;64457;51.976;9.834;2024-03-07T07:19:02;42.70;;;21.97;;
75823;SDS011;64457;51.976;9.834;2024-03-07T07:21:29;40.20;;;21.53;;
75823;SDS011;64457;51.976;9.834;2024-03-07T07:23:56;37.03;;;20.80;;
75823;SDS011;64457;51.976;9.834;2024-03-07T07:26:24;38.13;;;20.80;;
75823;SDS011;64457;51.976;9.834;2024-03-07T07:28:51;38.97;;;20.37;;
75823;SDS011;64457;51.976;9.834;2024-03-07T07:31:19;47.07;;;23.07;;
75823;SDS011;64457;51.976;9.834;2024-03-07T07:33:46;40.73;;;21.60;;
75823;SDS011;64457;51.976;9.834;2024-03-07T07:36:15;43.73;;;21.27;;
75823;SDS011;64457;51.976;9.834;2024-03-07T07:38:44;41.70;;;21.80;;
75823;SDS011;64457;51.976;9.834;2024-03-07T07:41:12;47.37;;;23.97;;
75823;SDS011;64457;51.976;9.834;2024-03-07T07:43:40;53.57;;;26.33;;
75823;SDS011;64457;51.976;9.834;2024-03-07T07:46:07;58.43;;;25.73;;
75823;SDS011;64457;51.976;9.834;2024-03-07T07:48:35;50.63;;;25.93;;
75823;SDS011;64457;51.976;9.834;2024-03-07T07:51:03;53.10;;;24.47;;
75823;SDS011;64457;51.976;9.834;2024-03-07T07:53:33;62.23;;;26.53;;
75823;SDS011;64457;51.976;9.834;2024-03-07T07:56:00;53.27;;;24.13;;
75823;SDS011;64457;51.976;9.834;2024-03-07T07:58:28;56.77;;;25.90;;
75823;SDS011;64457;51.976;9.834;2024-03-07T08:00:55;56.17;;;25.37;;
75823;SDS011;64457;51.976;9.834;2024-03-07T08:03:24;63.97;;;27.17;;
75823;SDS011;64457;51.976;9.834;2024-03-07T08:05:52;85.23;;;32.50;;
75823;SDS011;64457;51.976;9.834;2024-03-07T08:08:19;100.40;;;37.00;;
75823;SDS011;64457;51.976;9.834;2024-03-07T08:10:48;78.43;;;30.63;;
75823;SDS011;64457;51.976;9.834;2024-03-07T08:13:15;72.93;;;29.03;;
75823;SDS011;64457;51.976;9.834;2024-03-07T08:15:43;68.10;;;29.53;;
75823;SDS011;64457;51.976;9.834;2024-03-07T08:18:10;98.10;;;32.07;;
75823;SDS011;64457;51.976;9.834;2024-03-07T08:20:39;84.07;;;31.33;;
75823;SDS011;64457;51.976;9.834;2024-03-07T08:23:08;75.80;;;28.63;;
75823;SDS011;64457;51.976;9.834;2024-03-07T08:25:36;71.10;;;27.17;;
75823;SDS011;64457;51.976;9.834;2024-03-07T08:28:05;79.73;;;27.70;;
75823;SDS011;64457;51.976;9.834;2024-03-07T08:30:34;56.57;;;24.87;;
75823;SDS011;64457;51.976;9.834;2024-03-07T08:33:01;73.97;;;29.83;;
75823;SDS011;64457;51.976;9.834;2024-03-07T08:35:30;83.67;;;31.50;;
75823;SDS011;64457;51.976;9.834;2024-03-07T08:37:58;82.80;;;32.67;;
75823;SDS011;64457;51.976;9.834;2024-03-07T08:40:25;80.60;;;31.67;;
75823;SDS011;64457;51.976;9.834;2024-03-07T08:42:57;86.97;;;29.90;;
75823;SDS011;64457;51.976;9.834;2024-03-07T08:45:28;88.67;;;32.20;;
75823;SDS011;64457;51.976;9.834;2024-03-07T08:47:59;89.50;;;31.50;;
75823;SDS011;64457;51.976;9.834;2024-03-07T08:50:26;89.20;;;31.87;;
75823;SDS011;64457;51.976;9.834;2024-03-07T08:52:55;78.57;;;29.33;;
75823;SDS011;64457;51.976;9.834;2024-03-07T08:55:23;72.13;;;28.37;;
75823;SDS011;64457;51.976;9.834;2024-03-07T08:57:51;70.03;;;28.03;;
75823;SDS011;64457;51.976;9.834;2024-03-07T09:00:19;75.10;;;30.40;;
75823;SDS011;64457;51.976;9.834;2024-03-07T09:02:50;83.23;;;28.23;;
75823;SDS011;64457;51.976;9.834;2024-03-07T09:05:18;78.27;;;30.37;;
75823;SDS011;64457;51.976;9.834;2024-03-07T09:07:47;93.30;;;32.70;;
75823;SDS011;64457;51.976;9.834;2024-03-07T09:10:15;88.67;;;29.93;;
75823;SDS011;64457;51.976;9.834;2024-03-07T09:12:43;87.13;;;30.67;;
75823;SDS011;64457;51.976;9.834;2024-03-07T09:15:13;100.07;;;35.03;;
75823;SDS011;64457;51.976;9.834;2024-03-07T09:17:42;90.93;;;34.00;;
75823;SDS011;64457;51.976;9.834;2024-03-07T09:20:11;100.23;;;30.83;;
75823;SDS011;64457;51.976;9.834;2024-03-07T09:22:40;91.17;;;33.50;;
75823;SDS011;64457;51.976;9.834;2024-03-07T09:25:08;94.00;;;35.27;;
75823;SDS011;64457;51.976;9.834;2024-03-07T09:27:36;87.93;;;32.90;;
75823;SDS011;64457;51.976;9.834;2024-03-07T09:30:05;96.83;;;34.03;;
75823;SDS011;64457;51.976;9.834;2024-03-07T09:32:37;93.17;;;32.73;;
75823;SDS011;64457;51.976;9.834;2024-03-07T09:35:06;79.30;;;31.07;;
75823;SDS011;64457;51.976;9.834;2024-03-07T09:37:38;67.57;;;28.87;;
75823;SDS011;64457;51.976;9.834;2024-03-07T09:40:08;79.47;;;29.40;;
75823;SDS011;64457;51.976;9.834;2024-03-07T09:42:41;66.87;;;27.10;;
75823;SDS011;64457;51.976;9.834;2024-03-07T09:45:16;85.60;;;29.33;;
75823;SDS011;64457;51.976;9.834;2024-03-07T09:47:48;65.03;;;27.70;;
75823;SDS011;64457;51.976;9.834;2024-03-07T09:50:17;75.83;;;29.07;;
75823;SDS011;64457;51.976;9.834;2024-03-07T09:52:48;66.13;;;26.00;;
75823;SDS011;64457;51.976;9.834;2024-03-07T09:55:17;65.70;;;26.93;;
75823;SDS011;64457;51.976;9.834;2024-03-07T09:57:45;75.67;;;26.80;;
75823;SDS011;64457;51.976;9.834;2024-03-07T10:00:15;55.90;;;25.07;;
75823;SDS011;64457;51.976;9.834;2024-03-07T10:02:48;59.53;;;24.40;;
75823;SDS011;64457;51.976;9.834;2024-03-07T10:05:20;54.10;;;23.00;;
75823;SDS011;64457;51.976;9.834;2024-03-07T10:07:52;58.23;;;23.27;;
75823;SDS011;64457;51.976;9.834;2024-03-07T10:10:19;53.40;;;23.87;;
75823;SDS011;64457;51.976;9.834;2024-03-07T10:12:47;57.80;;;24.00;;
75823;SDS011;64457;51.976;9.834;2024-03-07T10:15:15;57.20;;;22.30;;
75823;SDS011;64457;51.976;9.834;2024-03-07T10:17:42;55.60;;;23.47;;
75823;SDS011;64457;51.976;9.834;2024-03-07T10:20:12;55.47;;;23.00;;
75823;SDS011;64457;51.976;9.834;2024-03-07T10:22:40;48.93;;;22.07;;
75823;SDS011;64457;51.976;9.834;2024-03-07T10:25:09;50.80;;;23.40;;
75823;SDS011;64457;51.976;9.834;2024-03-07T10:27:36;44.97;;;20.63;;
75823;SDS011;64457;51.976;9.834;2024-03-07T10:30:05;60.50;;;22.87;;
75823;SDS011;64457;51.976;9.834;2024-03-07T10:32:34;53.97;;;23.10;;
75823;SDS011;64457;51.976;9.834;2024-03-07T10:35:01;50.27;;;22.50;;
75823;SDS011;64457;51.976;9.834;2024-03-07T10:37:34;43.37;;;20.50;;
75823;SDS011;64457;51.976;9.834;2024-03-07T10:40:02;52.53;;;21.57;;
75823;SDS011;64457;51.976;9.834;2024-03-07T10:42:43;52.20;;;22.50;;
75823;SDS011;64457;51.976;9.834;2024-03-07T10:45:17;53.00;;;21.87;;
75823;SDS011;64457;51.976;9.834;2024-03-07T10:47:48;55.30;;;20.80;;
75823;SDS011;64457;51.976;9.834;2024-03-07T10:50:24;54.17;;;22.30;;
75823;SDS011;64457;51.976;9.834;2024-03-07T10:53:07;41.20;;;20.40;;
75823;SDS011;64457;51.976;9.834;2024-03-07T10:55:49;55.87;;;22.67;;
75823;SDS011;64457;51.976;9.834;2024-03-07T10:58:47;49.83;;;21.33;;
75823;SDS011;64457;51.976;9.834;2024-03-07T11:01:25;51.13;;;20.10;;
75823;SDS011;64457;51.976;9.834;2024-03-07T11:03:56;56.30;;;22.27;;
75823;SDS011;64457;51.976;9.834;2024-03-07T11:06:25;45.50;;;20.83;;
75823;SDS011;64457;51.976;9.834;2024-03-07T11:08:52;47.83;;;21.20;;
75823;SDS011;64457;51.976;9.834;2024-03-07T11:11:21;48.37;;;20.53;;
75823;SDS011;64457;51.976;9.834;2024-03-07T11:13:51;50.67;;;21.13;;
75823;SDS011;64457;51.976;9.834;2024-03-07T11:16:20;51.67;;;21.50;;
75823;SDS011;64457;51.976;9.834;2024-03-07T11:21:52;52.53;;;22.60;;
75823;SDS011;64457;51.976;9.834;2024-03-07T11:24:23;47.33;;;20.83;;
75823;SDS011;64457;51.976;9.834;2024-03-07T11:26:54;50.60;;;21.30;;
75823;SDS011;64457;51.976;9.834;2024-03-07T11:32:18;44.00;;;20.53;;
75823;SDS011;64457;51.976;9.834;2024-03-07T11:34:48;39.40;;;19.57;;
75823;SDS011;64457;51.976;9.834;2024-03-07T11:37:18;42.63;;;19.77;;
75823;SDS011;64457;51.976;9.834;2024-03-07T11:39:49;43.77;;;17.43;;
75823;SDS011;64457;51.976;9.834;2024-03-07T11:42:19;40.70;;;17.77;;
75823;SDS011;64457;51.976;9.834;2024-03-07T11:44:53;45.13;;;17.27;;
75823;SDS011;64457;51.976;9.834;2024-03-07T11:47:22;42.13;;;18.67;;
75823;SDS011;64457;51.976;9.834;2024-03-07T11:49:50;40.33;;;19.50;;
75823;SDS011;64457;51.976;9.834;2024-03-07T11:52:18;39.83;;;19.17;;
75823;SDS011;64457;51.976;9.834;2024-03-07T11:54:45;33.57;;;16.97;;
75823;SDS011;64457;51.976;9.834;2024-03-07T11:57:14;35.30;;;16.40;;
75823;SDS011;64457;51.976;9.834;2024-03-07T11:59:44;29.83;;;15.43;;
75823;SDS011;64457;51.976;9.834;2024-03-07T12:02:18;27.10;;;14.60;;
75823;SDS011;64457;51.976;9.834;2024-03-07T12:04:47;24.60;;;14.17;;
75823;SDS011;64457;51.976;9.834;2024-03-07T12:07:15;28.90;;;14.50;;
75823;SDS011;64457;51.976;9.834;2024-03-07T12:09:43;25.47;;;14.03;;
75823;SDS011;64457;51.976;9.834;2024-03-07T12:12:15;23.87;;;13.63;;
75823;SDS011;64457;51.976;9.834;2024-03-07T12:14:44;33.60;;;15.30;;
75823;SDS011;64457;51.976;9.834;2024-03-07T12:17:12;25.93;;;14.27;;
75823;SDS011;64457;51.976;9.834;2024-03-07T12:19:44;30.37;;;13.70;;
75823;SDS011;64457;51.976;9.834;2024-03-07T12:22:13;27.70;;;14.90;;
75823;SDS011;64457;51.976;9.834;2024-03-07T12:24:48;33.20;;;16.13;;
75823;SDS011;64457;51.976;9.834;2024-03-07T12:27:27;30.57;;;15.53;;
75823;SDS011;64457;51.976;9.834;2024-03-07T12:29:55;27.40;;;14.37;;
75823;SDS011;64457;51.976;9.834;2024-03-07T12:32:27;30.93;;;14.70;;
75823;SDS011;64457;51.976;9.834;2024-03-07T12:34:55;27.80;;;14.10;;
75823;SDS011;64457;51.976;9.834;2024-03-07T12:37:23;30.60;;;15.43;;
75823;SDS011;64457;51.976;9.834;2024-03-07T12:39:52;28.50;;;14.27;;
75823;SDS011;64457;51.976;9.834;2024-03-07T12:42:26;30.20;;;15.40;;
75823;SDS011;64457;51.976;9.834;2024-03-07T12:44:57;26.00;;;14.13;;
75823;SDS011;64457;51.976;9.834;2024-03-07T12:47:25;34.63;;;14.80;;
75823;SDS011;64457;51.976;9.834;2024-03-07T12:49:53;31.20;;;14.50;;
75823;SDS011;64457;51.976;9.834;2024-03-07T12:52:24;26.83;;;14.10;;
75823;SDS011;64457;51.976;9.834;2024-03-07T12:54:51;31.00;;;14.53;;
75823;SDS011;64457;51.976;9.834;2024-03-07T12:57:20;26.57;;;14.50;;
75823;SDS011;64457;51.976;9.834;2024-03-07T12:59:48;24.47;;;13.43;;
75823;SDS011;64457;51.976;9.834;2024-03-07T13:02:17;27.57;;;14.10;;
75823;SDS011;64457;51.976;9.834;2024-03-07T13:04:45;36.00;;;14.40;;
75823;SDS011;64457;51.976;9.834;2024-03-07T13:07:15;24.30;;;13.80;;
75823;SDS011;64457;51.976;9.834;2024-03-07T13:09:43;25.30;;;12.80;;
75823;SDS011;64457;51.976;9.834;2024-03-07T13:12:13;30.37;;;12.27;;
75823;SDS011;64457;51.976;9.834;2024-03-07T13:14:40;26.53;;;13.63;;
75823;SDS011;64457;51.976;9.834;2024-03-07T13:17:09;27.17;;;13.60;;
75823;SDS011;64457;51.976;9.834;2024-03-07T13:19:39;25.60;;;12.33;;
75823;SDS011;64457;51.976;9.834;2024-03-07T13:22:13;23.90;;;11.37;;
75823;SDS011;64457;51.976;9.834;2024-03-07T13:24:42;24.87;;;13.40;;
75823;SDS011;64457;51.976;9.834;2024-03-07T13:27:11;25.07;;;13.50;;
75823;SDS011;64457;51.976;9.834;2024-03-07T13:29:40;21.00;;;11.80;;
75823;SDS011;64457;51.976;9.834;2024-03-07T13:32:10;24.60;;;12.90;;
75823;SDS011;64457;51.976;9.834;2024-03-07T13:34:39;21.13;;;12.20;;
75823;SDS011;64457;51.976;9.834;2024-03-07T13:37:07;24.33;;;10.30;;
75823;SDS011;64457;51.976;9.834;2024-03-07T13:39:37;25.40;;;13.37;;
75823;SDS011;64457;51.976;9.834;2024-03-07T13:42:04;19.13;;;11.87;;
75823;SDS011;64457;51.976;9.834;2024-03-07T13:44:36;19.60;;;11.67;;
75823;SDS011;64457;51.976;9.834;2024-03-07T13:47:04;24.70;;;12.60;;
75823;SDS011;64457;51.976;9.834;2024-03-07T13:49:32;23.70;;;12.70;;
75823;SDS011;64457;51.976;9.834;2024-03-07T13:52:02;19.87;;;12.20;;
75823;SDS011;64457;51.976;9.834;2024-03-07T13:54:41;19.40;;;12.57;;
75823;SDS011;64457;51.976;9.834;2024-03-07T13:57:13;21.37;;;12.20;;
75823;SDS011;64457;51.976;9.834;2024-03-07T13:59:59;24.33;;;14.07;;
75823;SDS011;64457;51.976;9.834;2024-03-07T14:02:47;24.83;;;12.00;;
75823;SDS011;64457;51.976;9.834;2024-03-07T14:05:55;27.20;;;12.43;;
75823;SDS011;64457;51.976;9.834;2024-03-07T14:15:20;15.80;;;9.10;;
75823;SDS011;64457;51.976;9.834;2024-03-07T14:22:06;21.90;;;12.67;;
75823;SDS011;64457;51.976;9.834;2024-03-07T14:25:17;22.60;;;12.43;;
75823;SDS011;64457;51.976;9.834;2024-03-07T14:28:15;20.47;;;12.07;;
75823;SDS011;64457;51.976;9.834;2024-03-07T14:31:10;23.27;;;12.80;;
75823;SDS011;64457;51.976;9.834;2024-03-07T14:33:47;19.03;;;12.10;;
75823;SDS011;64457;51.976;9.834;2024-03-07T14:36:35;22.07;;;11.97;;
75823;SDS011;64457;51.976;9.834;2024-03-07T14:39:07;21.17;;;12.40;;
75823;SDS011;64457;51.976;9.834;2024-03-07T14:41:43;21.83;;;12.20;;
75823;SDS011;64457;51.976;9.834;2024-03-07T14:44:18;19.80;;;12.27;;
75823;SDS011;64457;51.976;9.834;2024-03-07T14:46:47;21.90;;;12.63;;
75823;SDS011;64457;51.976;9.834;2024-03-07T14:49:20;20.77;;;12.17;;
75823;SDS011;64457;51.976;9.834;2024-03-07T14:51:48;20.07;;;11.80;;
75823;SDS011;64457;51.976;9.834;2024-03-07T14:54:19;19.50;;;12.07;;